Lake Saint Louis, MO

8:15 PM CDT on May 27, 2015 (GMT -0500)
Locksley Manor | | Change Station
CLOSE
Current Station
Personal Weather Station
Location: Lake Saint Louis, MO
Elevation: 554 ft
Nearby Weather Stations
Active Advisory: Flood Warning

Elev 554 ft 38.78 °N, 90.77 °W | Updated 18 seconds ago

Clear
Clear
72.3 °F
Feels Like 74 °F
N
0.0
Wind Variable Wind from SW
Gusts 0.0 mph

Today
High -- | Low -- °F
--% Chance of Precip.
Yesterday
High -- | Low -- °F
Precip. -- in
5:42 AM 8:18 PM
Waxing Gibbous, 71% visible
Pressure 30.05 in
Visibility 10.0 miles
Clouds Few 3000 ft
Heat Index 74 °F
Dew Point 63 °F
Humidity 73%
Rainfall 0.00 in
Snow Depth Not available.
UV 0.0 out of 12
Pollen 8.30 out of 12
Air Quality Not available.
Flu Activity Sporadic
METAR KSUS 280054Z 02003KT 10SM FEW030 26/14 A3007 RMK AO2 SLP174 T02560144

More Conditions Fewer Conditions

Pressure 30.05 in
Visibility 10.0 miles
Clouds Few 3000 ft
Heat Index 74 °F
Dew Point 63 °F
Humidity 73%
Rainfall 0.00 in
Snow Depth Not available.
UV 0.0 out of 12
Pollen 8.30 out of 12
Air Quality Not available.
Flu Activity Sporadic
METAR KSUS 280054Z 02003KT 10SM FEW030 26/14 A3007 RMK AO2 SLP174 T02560144

More Conditions Fewer Conditions

10-Day Weather Forecast

Almanac

Astronomy

May. 27, 2015 Rise Set
Actual Time
Civil Twilight
Nautical Twilight
Astronomical Twilight
Moon
Length of Visible Light
Length of Day
Tomorrow will be .
, % of the Moon is Illuminated

Today's Extremes

State Highs State Lows

Community

WunderPhotos

Upload Photos

1,824,843 photos uploaded!

WunderBlogs® & News

Nearby

Air Quality

  Air Quality AQ Index Pollutant
Not available.

Snow Depth

Station Depth Elevation

Earthquake Activity

City Distance Mag. Time & Date
Minimum magnitude displayed is 2.5.

Coastal Water Temperatures

Place Temperature

Stations

Nearby Weather Stations

Station Location Temp. Windchill Dew Point Humidity Wind Precip. Elev Updated Type
                   
Flood Warning
Statement as of 10:50 AM CDT on May 27, 2015

The Flood Warning continues for
the Missouri River at St. Charles
* from this evening to Monday evening.
* At 10:30 am Wednesday the stage was 24.4 feet.
* Flood stage is 25.0 feet.
* Minor flooding is forecast.
* Forecast: the river will rise above flood stage by tonight and
continue to rise to near 25.4 feet by tomorrow early afternoon. The
river will fall below flood stage by Sunday before midnight.
* Impact: at 25.0 feet... flood stage. Minor flooding begins. The
right bank downstream overflows, flooding agricultural bottomland.

                   Fld latest 7 a.M. Forecast
location stg obs stg 05/28 05/29 05/30 05/31 06/01

Missouri River
St. Charles 25.0 24.38 25.3 25.2 25.1 25.3 24.7




Lat... Lon 3865 9078 3859 9072 3881 9017 3886 9018
      3891 9033